Antlers Park, Minnesota
Current Conditions -  °F | °C
As of 3:06 PM on Saturday 22 Nov 2014 (Local Time) from KLVN Reporting Station
Haze Haze  
Wind Chill: 28°   Ceiling: 500
Heat Index: 34°   Visibility: 2.5mi
Dew Point: 34°   Wind: 7mph
Humidity: 100%   Direction: 190°S
Pressure: 29.67"   Gusts: NA
Location:  44.6349°N, 93.283°W
Report Text: KLVN 222106Z AUTO 19006KT 2 1/2SM BR OVC005 01/01 A2967 RMK AO2
Loading
Personal Weather Stations






























Interactive Weather Map New forecast layout! Learn more

10-Day Weather Forecast

Advertisements
Track Severe Weather on mobile